BKT weather

Allen C Perkinson Blackstone Army Air Field
Blackstone, Virginia, United States

Public forecast

Using degrees Fahrenheit for public forecast. Weather courtesy of forecast.io.

METAR (pilot weather report)

Retrieved 2019/07/20 07:55 UTC (1 hour ago):

KBKT 200755Z AUTO 24004KT 10SM CLR 26/26 A2995 RMK AO1 T02570257

TAF (pilot weather forecast)

Closest forecast is Richmond International Airport, 40.0 nm (74.0 km) NE. Retrieved 2019/07/20 06:34 UTC (3 hours ago):

TAF KRIC 200532Z 2006/2106 20005KT P6SM SKC FM201100 25005KT P6SM SKC FM201700 23008KT P6SM SCT050